Time;durP1;ratioP1;P1;durP2;ratioP2;P2;SDS_P1;SDS_P2;PMS_P1;PMS_P2;Temp;Humidity;BMP_temperature;BMP_pressure;BME280_temperature;BME280_humidity;BME280_pressure;Samples;Min_cycle;Max_cycle;Signal;HPM_P1;HPM_P2
2022/08/31 00:04:52;;;;;;;2.40;0.40;;;16.60;87.80;;;;;;5070788;28;20044;-40
2022/08/31 00:07:17;;;;;;;2.10;0.30;;;16.60;87.90;;;;;;5086499;28;20045;-41
2022/08/31 00:09:43;;;;;;;0.85;0.20;;;16.60;87.70;;;;;;5065384;28;20089;-41
2022/08/31 00:12:09;;;;;;;2.20;0.40;;;16.60;87.60;;;;;;5071194;28;20043;-41
2022/08/31 00:14:35;;;;;;;2.63;0.20;;;16.60;87.70;;;;;;5070509;28;20119;-41
2022/08/31 00:17:00;;;;;;;0.25;0.10;;;16.60;87.40;;;;;;5070949;28;20452;-41
2022/08/31 00:19:26;;;;;;;1.38;0.20;;;16.60;87.20;;;;;;5070315;28;20052;-41
2022/08/31 00:21:52;;;;;;;1.42;0.20;;;16.60;86.90;;;;;;5070999;28;20385;-40
2022/08/31 00:24:17;;;;;;;0.20;0.10;;;16.60;87.00;;;;;;5068974;28;20079;-40
2022/08/31 00:26:43;;;;;;;1.50;0.20;;;16.60;86.90;;;;;;5069494;28;20090;-41
2022/08/31 00:29:09;;;;;;;0.32;0.20;;;16.60;86.70;;;;;;5070323;28;20484;-41
2022/08/31 00:31:34;;;;;;;1.02;0.20;;;16.60;86.60;;;;;;5070473;28;20040;-40
2022/08/31 00:34:00;;;;;;;0.82;0.20;;;16.60;86.60;;;;;;5070096;28;20508;-41
2022/08/31 00:36:26;;;;;;;1.13;0.38;;;16.50;86.40;;;;;;5069689;28;20070;-41
2022/08/31 00:38:52;;;;;;;1.55;0.10;;;16.50;86.20;;;;;;5070398;28;20068;-41
2022/08/31 00:41:21;;;;;;;2.80;0.40;;;16.50;85.90;;;;;;5069618;28;20045;-42
2022/08/31 00:43:51;;;;;;;1.45;0.20;;;16.50;85.60;;;;;;5058022;28;20044;-41
2022/08/31 00:46:25;;;;;;;1.85;0.10;;;16.40;85.20;;;;;;5069230;28;20044;-41
2022/08/31 00:49:00;;;;;;;1.80;0.20;;;16.40;84.90;;;;;;5069197;28;20050;-42
2022/08/31 00:51:29;;;;;;;0.52;0.15;;;16.40;84.60;;;;;;5061863;28;20516;-41
2022/08/31 00:53:55;;;;;;;0.52;0.10;;;16.30;84.30;;;;;;5069497;28;20120;-41
2022/08/31 00:56:21;;;;;;;6.13;0.30;;;16.30;84.30;;;;;;5069891;28;20049;-41
2022/08/31 00:58:47;;;;;;;;;;;16.30;84.10;;;;;;5070062;28;20097;-41
2022/08/31 01:01:13;;;;;;;0.68;0.20;;;16.30;83.70;;;;;;5068426;28;20007;-41
2022/08/31 01:03:39;;;;;;;1.60;0.30;;;16.20;83.70;;;;;;5069569;28;20426;-41
2022/08/31 01:06:06;;;;;;;1.75;0.10;;;16.20;83.60;;;;;;5070132;28;20036;-41
2022/08/31 01:08:32;;;;;;;2.15;0.10;;;16.10;83.40;;;;;;5069431;28;20401;-42
2022/08/31 01:10:59;;;;;;;0.75;0.15;;;16.10;83.00;;;;;;5069545;28;20048;-41
2022/08/31 01:13:25;;;;;;;0.57;0.10;;;16.10;82.90;;;;;;5069187;28;20493;-41
2022/08/31 01:15:57;;;;;;;0.30;0.20;;;16.10;82.80;;;;;;5067943;28;20036;-41
2022/08/31 01:18:23;;;;;;;0.35;0.17;;;16.10;82.70;;;;;;5055955;28;20085;-41
2022/08/31 01:21:28;;;;;;;6.13;0.52;;;16.00;82.80;;;;;;5069744;28;20486;-41
2022/08/31 01:23:57;;;;;;;1.27;0.20;;;16.00;83.00;;;;;;5068612;28;20037;-41
2022/08/31 01:26:27;;;;;;;0.57;0.28;;;15.90;83.30;;;;;;5070011;28;20411;-41
2022/08/31 01:28:57;;;;;;;4.18;0.30;;;15.80;83.40;;;;;;5069967;28;20397;-40
2022/08/31 01:31:30;;;;;;;0.70;0.17;;;15.80;83.40;;;;;;5068107;28;20076;-41
2022/08/31 01:33:55;;;;;;;1.85;0.20;;;15.80;83.50;;;;;;5069358;28;20115;-41
2022/08/31 01:36:21;;;;;;;2.85;0.20;;;15.70;83.70;;;;;;5069854;28;20128;-41
2022/08/31 01:38:47;;;;;;;4.38;0.10;;;15.70;83.60;;;;;;5068279;28;20115;-41
2022/08/31 01:41:13;;;;;;;2.22;0.10;;;15.70;83.40;;;;;;5070104;28;20029;-41
2022/08/31 01:43:39;;;;;;;2.47;0.20;;;15.60;83.30;;;;;;5069495;28;20032;-40
2022/08/31 01:46:08;;;;;;;0.30;0.10;;;15.60;83.10;;;;;;5069904;28;20032;-40
2022/08/31 01:48:34;;;;;;;0.52;0.10;;;15.50;83.20;;;;;;5068806;28;20496;-41
2022/08/31 01:51:01;;;;;;;1.65;0.20;;;15.50;82.90;;;;;;5069510;28;20439;-40
2022/08/31 01:53:27;;;;;;;0.38;0.10;;;15.50;82.90;;;;;;5069272;28;20530;-40
2022/08/31 01:55:52;;;;;;;14.32;0.75;;;15.40;82.70;;;;;;5073590;28;20097;-41
2022/08/31 01:58:18;;;;;;;1.73;0.10;;;15.40;82.50;;;;;;5072838;28;20478;-41
2022/08/31 02:00:44;;;;;;;1.88;0.10;;;15.40;82.50;;;;;;5071344;28;20475;-41
2022/08/31 02:03:10;;;;;;;1.30;0.17;;;15.30;82.90;;;;;;5073303;28;20037;-41
2022/08/31 02:05:36;;;;;;;0.50;0.10;;;15.20;82.80;;;;;;5073383;28;20044;-41
2022/08/31 02:08:03;;;;;;;1.42;0.20;;;15.20;82.60;;;;;;5072258;28;20183;-41
2022/08/31 02:10:29;;;;;;;0.28;0.10;;;15.20;82.40;;;;;;5072389;28;20036;-41
2022/08/31 02:12:55;;;;;;;0.82;0.20;;;15.10;82.50;;;;;;5072830;28;20081;-40
2022/08/31 02:15:20;;;;;;;3.03;0.20;;;15.10;82.60;;;;;;5073037;28;20067;-40
2022/08/31 02:17:46;;;;;;;1.85;0.20;;;15.00;82.30;;;;;;5073061;28;20036;-41
2022/08/31 02:20:13;;;;;;;1.00;0.30;;;15.00;82.20;;;;;;5072139;28;20036;-41
2022/08/31 02:22:39;;;;;;;5.38;0.10;;;15.00;82.10;;;;;;5072509;28;20400;-41
2022/08/31 02:25:05;;;;;;;7.03;0.40;;;15.00;82.10;;;;;;5071626;28;20195;-41
2022/08/31 02:27:31;;;;;;;;;;;15.00;82.10;;;;;;5073231;28;20595;-41
2022/08/31 02:29:56;;;;;;;5.30;0.45;;;15.00;82.00;;;;;;5072983;28;19920;-41
2022/08/31 02:32:22;;;;;;;0.20;0.10;;;14.90;82.10;;;;;;5072912;28;20087;-41
2022/08/31 02:34:48;;;;;;;0.52;0.38;;;15.00;82.10;;;;;;5072395;28;20110;-41
2022/08/31 02:37:15;;;;;;;3.35;0.20;;;14.90;82.40;;;;;;5071589;28;20493;-41
2022/08/31 02:39:41;;;;;;;0.30;0.10;;;14.90;82.40;;;;;;5072575;28;20044;-41
2022/08/31 02:42:06;;;;;;;0.73;0.30;;;14.80;82.60;;;;;;5072236;28;20047;-40
2022/08/31 02:44:32;;;;;;;0.82;0.10;;;14.80;82.70;;;;;;5071958;28;20036;-41
2022/08/31 02:46:58;;;;;;;1.80;0.10;;;14.80;83.30;;;;;;5072472;28;20032;-40
2022/08/31 02:49:23;;;;;;;0.55;0.10;;;14.70;82.90;;;;;;5070822;28;20048;-40
2022/08/31 02:51:49;;;;;;;1.75;0.10;;;14.70;83.00;;;;;;5072152;28;20049;-41
2022/08/31 02:54:15;;;;;;;0.35;0.28;;;14.70;83.30;;;;;;5071323;28;20044;-41
2022/08/31 02:56:40;;;;;;;1.17;0.10;;;14.60;83.40;;;;;;5072110;28;20041;-40
2022/08/31 02:59:06;;;;;;;0.47;0.20;;;14.60;83.50;;;;;;5072088;28;20493;-41
2022/08/31 03:01:32;;;;;;;1.95;0.20;;;14.60;83.60;;;;;;5071849;28;20083;-40
2022/08/31 03:03:59;;;;;;;1.55;0.17;;;14.60;83.80;;;;;;5071306;28;20090;-41
2022/08/31 03:06:25;;;;;;;1.95;0.20;;;14.60;83.80;;;;;;5086356;28;20123;-40
2022/08/31 03:08:51;;;;;;;2.70;0.35;;;14.60;83.90;;;;;;5072101;28;20508;-41
2022/08/31 03:11:17;;;;;;;1.95;0.10;;;14.50;84.00;;;;;;5071949;28;20524;-40
2022/08/31 03:13:42;;;;;;;0.70;0.10;;;14.50;84.00;;;;;;5071527;28;20087;-40
2022/08/31 03:16:10;;;;;;;0.25;0.10;;;14.50;84.20;;;;;;5071459;28;20290;-40
2022/08/31 03:18:36;;;;;;;0.22;0.10;;;14.50;84.30;;;;;;5071657;28;20055;-41
2022/08/31 03:21:01;;;;;;;0.55;0.30;;;14.50;84.40;;;;;;5071283;28;20515;-40
2022/08/31 03:23:27;;;;;;;0.60;0.10;;;14.40;84.50;;;;;;5071402;28;20258;-41
2022/08/31 03:25:52;;;;;;;0.65;0.10;;;14.40;84.50;;;;;;5071745;28;20036;-40
2022/08/31 03:28:19;;;;;;;0.40;0.10;;;14.30;84.50;;;;;;5070068;28;20040;-41
2022/08/31 03:30:45;;;;;;;0.20;0.10;;;14.30;84.60;;;;;;5071456;28;20230;-41
2022/08/31 03:33:11;;;;;;;0.55;0.10;;;14.30;84.70;;;;;;5070726;28;20049;-40
2022/08/31 03:35:37;;;;;;;;;;;14.30;84.70;;;;;;5072332;28;20041;-41
2022/08/31 03:38:04;;;;;;;0.77;0.10;;;14.30;85.20;;;;;;5071072;28;19920;-41
2022/08/31 03:40:30;;;;;;;0.32;0.20;;;14.20;84.90;;;;;;5071352;28;20044;-40
2022/08/31 03:42:58;;;;;;;;;;;14.20;85.00;;;;;;5071737;28;20032;-40
2022/08/31 03:45:26;;;;;;;0.75;0.10;;;14.20;85.30;;;;;;5071664;28;19916;-41
2022/08/31 03:47:52;;;;;;;0.65;0.20;;;14.20;85.20;;;;;;5070466;28;20076;-41
2022/08/31 03:50:18;;;;;;;2.53;0.10;;;14.20;85.60;;;;;;5071548;28;20068;-41
2022/08/31 03:52:43;;;;;;;0.30;0.20;;;14.10;85.60;;;;;;5070822;28;20087;-40
2022/08/31 03:55:10;;;;;;;1.52;0.10;;;14.10;85.60;;;;;;5071045;28;20529;-41
2022/08/31 03:57:35;;;;;;;;;;;14.10;85.70;;;;;;5071205;28;20049;-40
2022/08/31 04:00:04;;;;;;;0.30;0.10;;;14.00;86.10;;;;;;5070435;28;19999;-43
2022/08/31 04:02:29;;;;;;;0.68;0.13;;;14.00;86.00;;;;;;5068311;28;20398;-41
2022/08/31 04:04:55;;;;;;;0.40;0.20;;;14.00;86.20;;;;;;5070991;28;20040;-40
2022/08/31 04:07:20;;;;;;;0.68;0.20;;;14.00;86.40;;;;;;5071201;28;20040;-41
2022/08/31 04:09:47;;;;;;;0.77;0.25;;;13.90;86.50;;;;;;5070751;28;20093;-40
2022/08/31 04:12:15;;;;;;;0.98;0.20;;;13.90;86.70;;;;;;5071204;28;20040;-40
2022/08/31 04:14:41;;;;;;;1.73;0.32;;;13.90;86.90;;;;;;5070389;28;20043;-41
2022/08/31 04:17:11;;;;;;;0.50;0.20;;;13.80;87.00;;;;;;5070115;28;20041;-41
2022/08/31 04:19:39;;;;;;;1.05;0.15;;;13.80;87.20;;;;;;5069426;28;20045;-40
2022/08/31 04:22:04;;;;;;;0.63;0.28;;;13.80;87.50;;;;;;5070907;28;20047;-41
2022/08/31 04:24:30;;;;;;;4.30;0.20;;;13.70;87.50;;;;;;5070560;28;20041;-40
2022/08/31 04:26:55;;;;;;;0.50;0.20;;;13.70;87.70;;;;;;5070261;28;20048;-41
2022/08/31 04:29:22;;;;;;;2.15;0.20;;;13.70;88.00;;;;;;5070319;28;20041;-41
2022/08/31 04:31:48;;;;;;;1.48;0.20;;;13.60;88.80;;;;;;5070326;28;20110;-40
2022/08/31 04:34:14;;;;;;;1.27;0.40;;;13.60;88.60;;;;;;5069768;28;20032;-41
2022/08/31 04:36:39;;;;;;;0.90;0.20;;;13.50;88.70;;;;;;5070169;28;20090;-40
2022/08/31 04:39:06;;;;;;;1.48;0.30;;;13.50;89.00;;;;;;5070124;28;20410;-40
2022/08/31 04:41:35;;;;;;;0.85;0.20;;;13.50;89.20;;;;;;5069829;28;20044;-41
2022/08/31 04:44:02;;;;;;;1.40;0.63;;;13.40;89.60;;;;;;5069522;28;20313;-41
2022/08/31 04:46:28;;;;;;;1.50;0.32;;;13.50;90.10;;;;;;5069971;28;20162;-41
2022/08/31 04:48:55;;;;;;;2.97;0.30;;;13.40;90.00;;;;;;5070205;28;20114;-40
2022/08/31 04:51:27;;;;;;;3.78;0.40;;;13.40;90.10;;;;;;5070219;28;20059;-40
2022/08/31 04:53:54;;;;;;;5.75;0.22;;;13.40;90.20;;;;;;5057321;28;20146;-41
2022/08/31 04:56:21;;;;;;;;;;;13.40;90.30;;;;;;5070077;28;20055;-40
2022/08/31 04:58:50;;;;;;;2.80;0.38;;;13.30;90.70;;;;;;5068977;28;19917;-41
2022/08/31 05:01:19;;;;;;;2.72;0.30;;;13.30;90.60;;;;;;5069980;28;20037;-41
2022/08/31 05:03:49;;;;;;;3.33;0.28;;;13.30;90.80;;;;;;5068041;28;20045;-40
2022/08/31 05:06:16;;;;;;;1.45;0.30;;;13.30;90.90;;;;;;5068698;28;20044;-40
2022/08/31 05:08:43;;;;;;;1.30;0.30;;;13.30;91.00;;;;;;5069865;28;20425;-41
2022/08/31 05:11:13;;;;;;;1.45;0.20;;;13.30;91.20;;;;;;5069448;28;20540;-40
2022/08/31 05:13:39;;;;;;;0.60;0.30;;;13.30;91.40;;;;;;5069406;28;20047;-40
2022/08/31 05:16:08;;;;;;;1.00;0.30;;;13.30;91.50;;;;;;5069427;28;20024;-41
2022/08/31 05:18:34;;;;;;;0.70;0.30;;;13.40;91.70;;;;;;5070031;28;20071;-41
2022/08/31 05:21:19;;;;;;;0.90;0.20;;;13.40;91.70;;;;;;5069176;28;20060;-41
2022/08/31 05:23:47;;;;;;;1.20;0.30;;;13.40;91.90;;;;;;5068036;28;20078;-41
2022/08/31 05:26:22;;;;;;;0.47;0.30;;;13.40;91.90;;;;;;5069922;28;20119;-40
2022/08/31 05:28:48;;;;;;;1.20;0.38;;;13.40;92.20;;;;;;5071120;28;20040;-41
2022/08/31 05:31:14;;;;;;;2.05;0.50;;;13.40;92.20;;;;;;5072493;28;20032;-40
2022/08/31 05:33:40;;;;;;;1.88;0.32;;;13.50;92.30;;;;;;5073769;28;20040;-40
2022/08/31 05:36:07;;;;;;;2.25;0.35;;;13.50;92.50;;;;;;5072824;28;20071;-40
2022/08/31 05:38:33;;;;;;;5.00;0.40;;;13.60;92.60;;;;;;5067843;28;20040;-41
2022/08/31 05:40:59;;;;;;;1.88;0.38;;;13.70;92.60;;;;;;5074183;28;20229;-40
2022/08/31 05:43:25;;;;;;;3.25;0.43;;;13.70;92.60;;;;;;5073217;28;20517;-40
2022/08/31 05:45:51;;;;;;;;;;;13.80;92.70;;;;;;5074057;28;20048;-40
2022/08/31 05:48:16;;;;;;;3.15;0.57;;;13.80;93.00;;;;;;5072569;28;19920;-40
2022/08/31 05:50:42;;;;;;;1.20;0.30;;;13.90;92.90;;;;;;5068879;28;20044;-40
2022/08/31 05:53:08;;;;;;;0.90;0.47;;;13.90;92.80;;;;;;5072883;28;20056;-40
2022/08/31 05:55:34;;;;;;;1.20;0.35;;;13.90;92.90;;;;;;5073472;28;20048;-40
2022/08/31 05:58:00;;;;;;;5.15;0.30;;;14.00;93.00;;;;;;5073534;28;20052;-41
2022/08/31 06:00:26;;;;;;;2.30;0.40;;;14.00;93.00;;;;;;5073073;28;20032;-42
2022/08/31 06:02:53;;;;;;;2.55;0.30;;;14.10;93.10;;;;;;5072544;28;20094;-42
2022/08/31 06:05:19;;;;;;;2.28;0.35;;;14.20;93.10;;;;;;5072427;28;20039;-41
2022/08/31 06:07:46;;;;;;;2.67;0.30;;;14.20;92.90;;;;;;5073215;28;20045;-41
2022/08/31 06:10:13;;;;;;;2.38;0.40;;;14.30;92.90;;;;;;5072986;28;20048;-41
2022/08/31 06:12:41;;;;;;;1.65;0.30;;;14.30;92.90;;;;;;5073282;28;20518;-40
2022/08/31 06:15:08;;;;;;;4.05;0.77;;;14.30;93.00;;;;;;5072880;28;20059;-41
2022/08/31 06:17:34;;;;;;;5.00;0.43;;;14.30;93.10;;;;;;5072898;28;20099;-41
2022/08/31 06:20:00;;;;;;;15.75;1.27;;;14.30;93.20;;;;;;5073158;28;20436;-40
2022/08/31 06:22:26;;;;;;;2.90;0.38;;;14.30;93.20;;;;;;5072962;28;20040;-40
2022/08/31 06:24:51;;;;;;;4.68;0.30;;;14.40;93.30;;;;;;5072864;28;20051;-40
2022/08/31 06:27:17;;;;;;;1.20;0.40;;;14.50;93.50;;;;;;5071853;28;20405;-41
2022/08/31 06:29:44;;;;;;;12.10;1.45;;;14.60;93.40;;;;;;5072717;28;20043;-41
2022/08/31 06:32:11;;;;;;;0.38;0.20;;;14.70;93.40;;;;;;5072424;28;20405;-42
2022/08/31 06:34:37;;;;;;;3.80;0.47;;;14.70;93.20;;;;;;5071150;28;20517;-43
2022/08/31 06:37:04;;;;;;;1.05;0.30;;;14.80;93.20;;;;;;5069074;28;20119;-41
2022/08/31 06:39:30;;;;;;;2.22;0.30;;;14.90;93.30;;;;;;5072374;28;20142;-42
2022/08/31 06:41:55;;;;;;;2.03;0.30;;;15.00;93.30;;;;;;5072614;28;20129;-41
2022/08/31 06:44:22;;;;;;;13.43;0.93;;;15.10;93.10;;;;;;5072289;28;20443;-42
2022/08/31 06:46:49;;;;;;;1.45;0.50;;;15.30;93.20;;;;;;5072493;28;20409;-42
2022/08/31 06:49:16;;;;;;;1.73;0.35;;;15.40;93.10;;;;;;5069359;28;20040;-42
2022/08/31 06:51:43;;;;;;;30.20;1.55;;;15.50;92.90;;;;;;5052406;28;20426;-42
2022/08/31 06:54:09;;;;;;;;;;;15.60;92.70;;;;;;5070317;28;20120;-42
2022/08/31 06:56:36;;;;;;;3.00;0.40;;;15.60;92.40;;;;;;5072793;28;20050;-42
2022/08/31 06:59:02;;;;;;;5.57;0.80;;;15.70;92.40;;;;;;5072048;28;20032;-43
2022/08/31 07:01:29;;;;;;;0.98;0.30;;;15.70;92.20;;;;;;5072096;28;20047;-41
2022/08/31 07:03:57;;;;;;;81.45;4.50;;;15.80;92.40;;;;;;5071646;28;20499;-42
2022/08/31 07:06:28;;;;;;;10.25;0.50;;;15.90;92.40;;;;;;5071172;28;20072;-43
2022/08/31 07:08:57;;;;;;;2.88;0.50;;;16.00;92.40;;;;;;5071880;28;20047;-42
2022/08/31 07:11:26;;;;;;;3.88;0.30;;;16.10;92.10;;;;;;5066928;28;20435;-42
2022/08/31 07:13:53;;;;;;;1.70;0.40;;;16.20;92.10;;;;;;5071732;28;20103;-42
2022/08/31 07:16:22;;;;;;;1.65;0.40;;;16.30;92.10;;;;;;5070990;28;20037;-42
2022/08/31 07:18:50;;;;;;;1.85;0.40;;;16.40;92.10;;;;;;5054893;28;20035;-42
2022/08/31 07:21:22;;;;;;;0.80;0.20;;;16.50;92.10;;;;;;5064831;28;20086;-42
2022/08/31 07:23:49;;;;;;;2.75;0.40;;;16.60;92.30;;;;;;5082223;28;20051;-42
2022/08/31 07:26:24;;;;;;;4.35;0.30;;;16.80;92.00;;;;;;5082665;28;20036;-41
2022/08/31 07:28:51;;;;;;;2.35;0.30;;;16.80;91.60;;;;;;5084651;28;20446;-42
2022/08/31 07:31:22;;;;;;;0.38;0.20;;;16.90;91.60;;;;;;5084411;28;20040;-42
2022/08/31 07:33:49;;;;;;;2.58;0.20;;;17.00;91.90;;;;;;5085009;28;20043;-42
2022/08/31 07:36:16;;;;;;;3.90;0.40;;;17.20;91.80;;;;;;5090117;28;20063;-41
2022/08/31 07:44:13;;;;;;;1.48;0.20;;;17.40;91.10;;;;;;5075688;28;20047;-42
2022/08/31 07:46:38;;;;;;;2.38;0.20;;;17.60;91.10;;;;;;5074431;28;20122;-41
2022/08/31 07:49:12;;;;;;;2.47;0.20;;;17.60;90.90;;;;;;5077367;28;20115;-42
2022/08/31 07:51:52;;;;;;;0.98;0.35;;;17.70;91.20;;;;;;5087010;28;20105;-42
2022/08/31 07:54:26;;;;;;;8.05;0.65;;;17.80;90.70;;;;;;5082270;28;20210;-48
2022/08/31 07:56:59;;;;;;;2.25;0.20;;;17.90;90.60;;;;;;5080895;28;20036;-47
2022/08/31 07:59:25;;;;;;;1.70;0.30;;;18.00;90.50;;;;;;5090270;28;20036;-45
2022/08/31 08:01:54;;;;;;;0.90;0.20;;;18.10;90.50;;;;;;5088549;28;20044;-47
2022/08/31 08:04:25;;;;;;;0.32;0.25;;;18.10;90.20;;;;;;5085395;28;20040;-42
2022/08/31 08:06:55;;;;;;;2.03;0.40;;;18.20;90.10;;;;;;5088799;28;20036;-44
2022/08/31 08:09:28;;;;;;;4.78;0.30;;;18.20;89.50;;;;;;5079193;28;20094;-43
2022/08/31 08:11:56;;;;;;;1.05;0.20;;;18.20;88.80;;;;;;5080477;28;20037;-45
2022/08/31 08:14:23;;;;;;;1.33;0.20;;;18.20;88.50;;;;;;5084532;28;20059;-43
2022/08/31 08:16:49;;;;;;;3.13;0.20;;;18.20;89.10;;;;;;5087315;28;20127;-43
2022/08/31 08:19:15;;;;;;;3.47;0.32;;;18.30;89.30;;;;;;5082262;28;20123;-44
2022/08/31 08:21:42;;;;;;;;;;;18.40;89.20;;;;;;5082516;28;20212;-45
2022/08/31 08:24:09;;;;;;;1.45;0.28;;;18.50;88.20;;;;;;5070996;28;20377;-43
2022/08/31 08:26:35;;;;;;;9.70;0.38;;;18.50;88.40;;;;;;5065986;28;20040;-44
2022/08/31 08:29:04;;;;;;;15.02;0.73;;;18.60;87.80;;;;;;5050699;28;20061;-44
2022/08/31 08:31:30;;;;;;;4.10;0.20;;;18.70;87.30;;;;;;5057732;28;20059;-43
2022/08/31 08:33:56;;;;;;;1.55;0.30;;;18.70;86.80;;;;;;5069137;28;20111;-43
2022/08/31 08:36:21;;;;;;;0.60;0.10;;;18.70;86.30;;;;;;5070326;28;20195;-43
2022/08/31 08:38:50;;;;;;;2.45;0.20;;;18.80;86.60;;;;;;5069729;28;20044;-45
2022/08/31 08:41:26;;;;;;;4.18;0.13;;;18.90;85.90;;;;;;5069954;28;20390;-43
2022/08/31 08:43:54;;;;;;;6.72;0.20;;;19.00;85.20;;;;;;5069389;28;20480;-46
2022/08/31 08:46:33;;;;;;;8.07;0.20;;;19.10;85.90;;;;;;5070302;28;20049;-43
2022/08/31 08:49:10;;;;;;;5.68;0.20;;;19.20;85.30;;;;;;5070460;28;20397;-43
2022/08/31 08:51:38;;;;;;;0.40;0.20;;;19.30;85.50;;;;;;5070277;28;20041;-45
2022/08/31 08:54:11;;;;;;;0.77;0.30;;;19.40;83.40;;;;;;5070019;28;20480;-43
2022/08/31 08:56:47;;;;;;;5.03;0.20;;;19.50;84.30;;;;;;5070276;28;20044;-44
2022/08/31 08:59:14;;;;;;;5.17;0.10;;;19.60;82.70;;;;;;5070137;28;20043;-43
2022/08/31 09:01:41;;;;;;;0.95;0.10;;;19.60;82.20;;;;;;5066104;28;20032;-45
2022/08/31 09:04:45;;;;;;;18.88;0.88;;;19.70;81.10;;;;;;5068999;28;20033;-42
2022/08/31 09:07:29;;;;;;;7.88;0.90;;;19.70;80.50;;;;;;5070326;28;20040;-43
2022/08/31 09:10:10;;;;;;;3.28;0.30;;;19.80;79.70;;;;;;5069486;28;20105;-47
2022/08/31 09:13:11;;;;;;;2.58;0.20;;;19.80;79.10;;;;;;5070048;28;20040;-43
2022/08/31 09:15:50;;;;;;;3.17;0.20;;;19.90;78.20;;;;;;5046527;28;20079;-47
2022/08/31 09:18:35;;;;;;;2.25;0.20;;;19.90;77.10;;;;;;5070336;28;20036;-46
2022/08/31 09:21:26;;;;;;;746.10;79.40;;;20.00;77.00;;;;;;5069802;28;20083;-45
2022/08/31 09:23:58;;;;;;;2.20;0.17;;;20.00;77.10;;;;;;5069973;28;20037;-43
2022/08/31 09:26:26;;;;;;;3.17;0.10;;;20.10;76.70;;;;;;5070137;28;20080;-44
2022/08/31 09:28:52;;;;;;;18.58;0.88;;;20.30;76.60;;;;;;5069959;28;20048;-46
2022/08/31 09:31:36;;;;;;;;;;;20.30;75.20;;;;;;5070189;28;20036;-43
2022/08/31 09:34:05;;;;;;;25.75;2.38;;;20.40;75.10;;;;;;5068090;28;19916;-42
2022/08/31 09:36:39;;;;;;;4.70;0.57;;;20.40;74.00;;;;;;5069615;28;20093;-45
2022/08/31 09:39:28;;;;;;;1.80;0.35;;;20.50;74.30;;;;;;5069844;28;20036;-44
2022/08/31 09:41:59;;;;;;;24.20;1.17;;;20.60;73.80;;;;;;5069665;28;20068;-42
2022/08/31 09:44:40;;;;;;;1.88;0.20;;;20.60;73.50;;;;;;5069092;28;20044;-44
2022/08/31 09:47:38;;;;;;;7.03;0.30;;;20.70;73.60;;;;;;5069655;28;20041;-43
2022/08/31 09:50:10;;;;;;;7.35;0.25;;;20.80;74.50;;;;;;5060717;28;20424;-43
2022/08/31 09:55:26;;;;;;;10.98;0.30;;;20.90;73.10;;;;;;5069891;28;20537;-47
2022/08/31 09:58:01;;;;;;;10.20;0.30;;;20.90;72.10;;;;;;5069907;28;20041;-43
2022/08/31 10:00:34;;;;;;;5.32;0.20;;;21.00;72.70;;;;;;5065584;28;20037;-41
2022/08/31 10:03:19;;;;;;;2.60;0.10;;;21.00;70.80;;;;;;5066440;28;20032;-43
2022/08/31 10:05:47;;;;;;;3.17;0.20;;;21.10;71.40;;;;;;5069471;28;20032;-47
2022/08/31 10:08:45;;;;;;;2.47;0.10;;;21.10;72.20;;;;;;5069447;28;20434;-42
2022/08/31 10:11:20;;;;;;;316.33;34.50;;;21.30;72.90;;;;;;5068162;28;20097;-42
2022/08/31 10:13:53;;;;;;;290.02;27.40;;;21.50;73.90;;;;;;5065607;28;20375;-41
2022/08/31 10:16:35;;;;;;;26.63;0.95;;;21.60;71.90;;;;;;5062854;28;20029;-43
2022/08/31 10:19:05;;;;;;;6.43;0.40;;;21.60;70.60;;;;;;5053204;28;20032;-42
2022/08/31 10:21:58;;;;;;;5.05;0.10;;;21.60;69.80;;;;;;5054041;28;20111;-43
2022/08/31 10:24:47;;;;;;;9.27;0.20;;;21.60;70.80;;;;;;5061453;28;20033;-42
2022/08/31 10:27:21;;;;;;;0.38;0.20;;;21.70;71.10;;;;;;5067879;28;20090;-45
2022/08/31 10:30:03;;;;;;;36.28;1.85;;;21.70;70.60;;;;;;5071591;28;20040;-42
2022/08/31 10:32:35;;;;;;;1.52;0.10;;;21.90;70.90;;;;;;5059934;28;20307;-43
2022/08/31 10:35:18;;;;;;;3.22;0.10;;;22.00;70.20;;;;;;5066459;28;20298;-43
2022/08/31 10:37:56;;;;;;;0.80;0.20;;;22.00;69.40;;;;;;5068722;28;20041;-44
2022/08/31 10:40:31;;;;;;;0.38;0.20;;;22.10;69.10;;;;;;5069332;28;20425;-42
2022/08/31 10:43:07;;;;;;;1.27;0.13;;;22.10;69.30;;;;;;5072406;28;20040;-42
2022/08/31 10:45:37;;;;;;;3.28;0.20;;;22.20;69.60;;;;;;5072293;28;20135;-45
2022/08/31 10:48:03;;;;;;;2.13;0.10;;;22.20;68.80;;;;;;5072443;28;20193;-42
2022/08/31 10:50:52;;;;;;;2.00;0.10;;;22.30;69.40;;;;;;5072350;28;20049;-42
2022/08/31 10:53:32;;;;;;;1.08;0.20;;;22.30;69.30;;;;;;5072568;28;20299;-43
2022/08/31 10:56:03;;;;;;;1.02;0.20;;;22.40;68.90;;;;;;5072797;28;20051;-41
2022/08/31 10:58:40;;;;;;;7.85;0.50;;;22.50;69.10;;;;;;5072845;28;20045;-43
2022/08/31 11:01:16;;;;;;;1.30;0.20;;;22.50;68.70;;;;;;5072448;28;20097;-43
2022/08/31 11:04:19;;;;;;;10.63;0.40;;;22.50;69.00;;;;;;5072553;28;20394;-42
2022/08/31 11:07:17;;;;;;;11.43;0.70;;;22.50;69.00;;;;;;5072887;28;20452;-44
2022/08/31 11:09:55;;;;;;;10.35;0.40;;;22.60;67.90;;;;;;5072481;28;20097;-44
2022/08/31 11:12:27;;;;;;;15.27;0.70;;;22.50;67.60;;;;;;5072446;28;20098;-42
2022/08/31 11:15:10;;;;;;;2.10;0.30;;;22.40;66.20;;;;;;5072074;28;20043;-42
2022/08/31 11:18:00;;;;;;;1.85;0.20;;;22.40;66.80;;;;;;5072427;28;20086;-43
2022/08/31 11:20:50;;;;;;;2.33;0.13;;;22.40;66.80;;;;;;5072262;28;20044;-42
2022/08/31 11:23:34;;;;;;;0.77;0.20;;;22.40;66.80;;;;;;5071961;28;20075;-42
2022/08/31 11:26:23;;;;;;;2.28;0.20;;;22.50;65.40;;;;;;5070721;28;20121;-41
2022/08/31 11:28:55;;;;;;;4.75;0.65;;;22.50;66.40;;;;;;5070724;28;20033;-46
2022/08/31 11:31:26;;;;;;;4.88;0.20;;;22.60;65.90;;;;;;5072193;28;20045;-41
2022/08/31 11:33:56;;;;;;;5.07;0.20;;;22.60;66.00;;;;;;5071781;28;20254;-42
2022/08/31 11:36:41;;;;;;;2.00;0.10;;;22.70;66.50;;;;;;5071866;28;20394;-42
2022/08/31 11:39:07;;;;;;;2.45;0.75;;;22.80;66.50;;;;;;5008440;28;20624;-44
2022/08/31 11:41:48;;;;;;;;;;;22.90;66.30;;;;;;5009687;28;20056;-42
2022/08/31 11:44:32;;;;;;;42.22;2.83;;;23.00;66.50;;;;;;4991798;28;19952;-42
2022/08/31 11:47:06;;;;;;;0.40;0.10;;;23.10;64.30;;;;;;5008352;28;20049;-42
2022/08/31 11:49:36;;;;;;;2.10;0.17;;;23.10;64.40;;;;;;5008923;28;20053;-42
2022/08/31 11:52:09;;;;;;;1.67;0.10;;;23.20;65.10;;;;;;5008952;28;20149;-42
2022/08/31 11:54:40;;;;;;;2.25;0.30;;;23.30;64.80;;;;;;5008753;28;20102;-41
2022/08/31 11:57:14;;;;;;;2.63;0.15;;;23.40;64.30;;;;;;5008352;28;20061;-42
2022/08/31 11:59:44;;;;;;;5.65;0.10;;;23.50;65.00;;;;;;5008918;28;20108;-42
2022/08/31 12:02:19;;;;;;;4.20;0.10;;;23.60;64.20;;;;;;5008778;28;20041;-42
2022/08/31 12:04:50;;;;;;;4.28;0.20;;;23.60;64.60;;;;;;5008366;28;20045;-42
2022/08/31 12:07:29;;;;;;;0.30;0.10;;;23.70;64.80;;;;;;5008568;28;20054;-42
2022/08/31 12:10:16;;;;;;;1.58;0.20;;;23.80;64.80;;;;;;4996305;28;20129;-42
2022/08/31 12:12:53;;;;;;;2.42;0.20;;;23.90;64.50;;;;;;5008367;28;20053;-42
2022/08/31 12:15:42;;;;;;;1.05;0.10;;;23.80;62.30;;;;;;5015391;28;20072;-42
2022/08/31 12:18:40;;;;;;;0.63;0.17;;;23.80;62.20;;;;;;5069931;28;20080;-43
2022/08/31 12:24:32;;;;;;;3.35;0.20;;;23.90;62.30;;;;;;5070342;28;20037;-42
2022/08/31 12:27:16;;;;;;;6.57;0.40;;;23.80;60.30;;;;;;5070593;28;20045;-42
2022/08/31 12:29:42;;;;;;;1.35;0.10;;;23.80;60.50;;;;;;5068958;28;20127;-42
2022/08/31 12:32:28;;;;;;;0.45;0.32;;;23.80;61.20;;;;;;5070513;28;20119;-44
2022/08/31 12:35:16;;;;;;;1.98;0.22;;;23.90;60.60;;;;;;5069945;28;20520;-43
2022/08/31 12:37:42;;;;;;;6.57;0.30;;;23.90;59.80;;;;;;5070239;28;20413;-43
2022/08/31 12:40:20;;;;;;;2.25;0.20;;;23.90;60.10;;;;;;5070205;28;20032;-41
2022/08/31 12:42:57;;;;;;;2.20;0.22;;;23.90;60.30;;;;;;5070151;28;20047;-42
2022/08/31 12:46:11;;;;;;;0.45;0.20;;;23.90;59.70;;;;;;5069875;28;20512;-44
2022/08/31 12:49:04;;;;;;;116.80;8.73;;;24.00;59.60;;;;;;5070154;28;20040;-44
2022/08/31 12:51:35;;;;;;;7.65;0.28;;;24.00;59.40;;;;;;5069918;28;20202;-43
2022/08/31 12:54:35;;;;;;;1.38;0.30;;;24.00;59.40;;;;;;5070415;28;20156;-42
2022/08/31 12:57:31;;;;;;;8.70;0.22;;;24.00;59.00;;;;;;5069115;28;20533;-43
2022/08/31 13:00:06;;;;;;;6.75;0.77;;;24.00;58.00;;;;;;5069405;28;20043;-43
2022/08/31 13:02:36;;;;;;;4.00;0.85;;;24.10;58.10;;;;;;5069810;28;20689;-43
2022/08/31 13:05:03;;;;;;;2.60;0.20;;;24.20;58.40;;;;;;5070334;28;20063;-43
2022/08/31 13:07:32;;;;;;;0.60;0.10;;;24.30;57.80;;;;;;5066526;28;20048;-42
2022/08/31 13:10:08;;;;;;;6.18;0.85;;;24.20;58.10;;;;;;5069729;28;20105;-42
2022/08/31 13:12:34;;;;;;;;;;;24.20;57.80;;;;;;5070069;28;20045;-43
2022/08/31 13:15:00;;;;;;;0.43;0.13;;;24.20;57.70;;;;;;5065971;28;19969;-43
2022/08/31 13:17:33;;;;;;;4.00;0.50;;;24.20;57.60;;;;;;5069903;28;20044;-43
2022/08/31 13:20:00;;;;;;;0.93;0.13;;;24.20;57.20;;;;;;5069890;28;20036;-42
2022/08/31 13:22:38;;;;;;;4.85;0.10;;;24.10;57.10;;;;;;5068874;28;20489;-41